Terminal Aerodrome Forecast
Issued by NWS Sterling, VA

Current Version | Previous Version | Text Only | Print | Product List | Glossary On
Versions: 1 2 3 4 5 6 7 8 9 10 11 12 13 14 15
000
FTUS41 KLWX 191100
TAFCHO
TAF
KCHO 191131Z 1912/2012 00000KT P6SM BKN250
     FM191400 02004KT P6SM BKN250
     FM191600 04009KT P6SM BKN250
     FM192300 05005KT P6SM BKN250=

USA.gov is the U.S. government's official web portal to all federal, state and local government web resources and services.